KTEX/TEX METAR and TAF weather

Enter ICAO airport designator
Station Type Date Time Source
KTEX METAR 2020/01/24 21:15 UTC NOAA

KTEX 242115Z AUTO 27007KT 10SM CLR 05/M10 A3007 RMK AO2


Station Type Date Time Source
KTEX Decoded METAR 2020/01/24 21:15 UTC NOAA

Telluride, Telluride Regional Airport, CO, United States (KTEX) 37-57-14N 107-54-31W
Jan 24, 2020 - 04:15 PM EST / 2020.01.24 2115 UTC
Wind: from the W (270 degrees) at 8 MPH (7 KT):0
Visibility: 10 mile(s):0
Sky conditions: clear
Temperature: 41 F (5 C)
Dew Point: 14 F (-10 C)
Relative Humidity: 32%
Pressure (altimeter): 30.07 in. Hg (1018 hPa)
ob: KTEX 242115Z AUTO 27007KT 10SM CLR 05/M10 A3007 RMK AO2
cycle: 21

Station Type Date Time Source
KTEX TAF 2020/01/24 18:45 UTC NOAA

TAF KTEX 241743Z 2418/2518 14006KT P6SM FEW100 FEW250
FM242100 27007KT P6SM SCT060 BKN200
FM250100 VRB03KT P6SM SCT040 BKN100
FM250600 VRB03KT P6SM SCT030 BKN050
FM251000 VRB04KT P6SM SCT014 BKN020
FM251600 VRB04KT P6SM FEW050 SCT200

Example: see airport list